sensor_id;sensor_type;location;lat;lon;timestamp;P1;durP1;ratioP1;P2;durP2;ratioP2
52035;SDS011;38046;49.448;32.074;2022-12-07T00:01:29;4.07;;;3.40;;
52035;SDS011;38046;49.448;32.074;2022-12-07T00:03:58;4.43;;;3.70;;
52035;SDS011;38046;49.448;32.074;2022-12-07T00:06:31;5.13;;;3.40;;
52035;SDS011;38046;49.448;32.074;2022-12-07T00:08:59;3.85;;;3.00;;
52035;SDS011;38046;49.448;32.074;2022-12-07T00:11:25;4.28;;;3.10;;
52035;SDS011;38046;49.448;32.074;2022-12-07T00:13:53;3.78;;;3.08;;
52035;SDS011;38046;49.448;32.074;2022-12-07T00:16:28;4.28;;;3.10;;
52035;SDS011;38046;49.448;32.074;2022-12-07T00:18:55;4.47;;;3.15;;
52035;SDS011;38046;49.448;32.074;2022-12-07T00:21:25;3.80;;;3.28;;
52035;SDS011;38046;49.448;32.074;2022-12-07T00:24:11;3.60;;;3.13;;
52035;SDS011;38046;49.448;32.074;2022-12-07T00:26:38;3.20;;;2.90;;
52035;SDS011;38046;49.448;32.074;2022-12-07T00:29:16;3.90;;;3.28;;
52035;SDS011;38046;49.448;32.074;2022-12-07T00:31:44;4.32;;;3.20;;
52035;SDS011;38046;49.448;32.074;2022-12-07T00:34:14;3.25;;;2.95;;
52035;SDS011;38046;49.448;32.074;2022-12-07T00:36:44;5.35;;;3.28;;
52035;SDS011;38046;49.448;32.074;2022-12-07T00:39:10;5.30;;;3.25;;
52035;SDS011;38046;49.448;32.074;2022-12-07T00:41:43;3.67;;;2.92;;
52035;SDS011;38046;49.448;32.074;2022-12-07T00:44:09;3.65;;;3.20;;
52035;SDS011;38046;49.448;32.074;2022-12-07T00:50:08;4.05;;;3.40;;
52035;SDS011;38046;49.448;32.074;2022-12-07T00:52:34;5.28;;;3.50;;
52035;SDS011;38046;49.448;32.074;2022-12-07T00:58:22;3.67;;;3.38;;
52035;SDS011;38046;49.448;32.074;2022-12-07T01:00:48;3.92;;;3.17;;
52035;SDS011;38046;49.448;32.074;2022-12-07T01:03:14;5.75;;;3.78;;
52035;SDS011;38046;49.448;32.074;2022-12-07T01:05:51;9.50;;;4.13;;
52035;SDS011;38046;49.448;32.074;2022-12-07T01:08:18;4.60;;;3.67;;
52035;SDS011;38046;49.448;32.074;2022-12-07T01:10:44;5.53;;;3.85;;
52035;SDS011;38046;49.448;32.074;2022-12-07T01:13:10;6.97;;;4.28;;
52035;SDS011;38046;49.448;32.074;2022-12-07T01:15:40;5.05;;;3.90;;
52035;SDS011;38046;49.448;32.074;2022-12-07T01:18:06;6.63;;;5.93;;
52035;SDS011;38046;49.448;32.074;2022-12-07T01:20:32;4.43;;;3.58;;
52035;SDS011;38046;49.448;32.074;2022-12-07T01:22:57;5.40;;;3.78;;
52035;SDS011;38046;49.448;32.074;2022-12-07T01:25:23;4.40;;;3.72;;
52035;SDS011;38046;49.448;32.074;2022-12-07T01:27:49;5.40;;;4.15;;
52035;SDS011;38046;49.448;32.074;2022-12-07T01:30:14;5.60;;;4.13;;
52035;SDS011;38046;49.448;32.074;2022-12-07T01:32:40;5.53;;;4.05;;
52035;SDS011;38046;49.448;32.074;2022-12-07T01:35:05;5.13;;;4.00;;
52035;SDS011;38046;49.448;32.074;2022-12-07T01:37:35;4.82;;;4.00;;
52035;SDS011;38046;49.448;32.074;2022-12-07T01:40:02;5.20;;;4.10;;
52035;SDS011;38046;49.448;32.074;2022-12-07T01:42:29;5.75;;;3.90;;
52035;SDS011;38046;49.448;32.074;2022-12-07T01:47:42;6.68;;;4.80;;
52035;SDS011;38046;49.448;32.074;2022-12-07T01:50:11;4.00;;;3.60;;
52035;SDS011;38046;49.448;32.074;2022-12-07T01:52:38;4.25;;;3.53;;
52035;SDS011;38046;49.448;32.074;2022-12-07T01:55:07;5.32;;;3.78;;
52035;SDS011;38046;49.448;32.074;2022-12-07T01:57:36;6.03;;;3.95;;
52035;SDS011;38046;49.448;32.074;2022-12-07T02:00:05;4.40;;;3.28;;
52035;SDS011;38046;49.448;32.074;2022-12-07T02:02:33;6.40;;;3.95;;
52035;SDS011;38046;49.448;32.074;2022-12-07T02:05:02;4.18;;;3.60;;
52035;SDS011;38046;49.448;32.074;2022-12-07T02:07:30;4.85;;;3.50;;
52035;SDS011;38046;49.448;32.074;2022-12-07T02:09:57;5.70;;;3.25;;
52035;SDS011;38046;49.448;32.074;2022-12-07T02:12:36;4.40;;;3.53;;
52035;SDS011;38046;49.448;32.074;2022-12-07T02:15:02;3.28;;;2.90;;
52035;SDS011;38046;49.448;32.074;2022-12-07T02:17:30;4.47;;;2.95;;
52035;SDS011;38046;49.448;32.074;2022-12-07T02:28:37;6.75;;;3.65;;
52035;SDS011;38046;49.448;32.074;2022-12-07T02:31:22;6.45;;;3.97;;
52035;SDS011;38046;49.448;32.074;2022-12-07T02:33:53;5.63;;;4.45;;
52035;SDS011;38046;49.448;32.074;2022-12-07T02:36:30;5.63;;;3.90;;
52035;SDS011;38046;49.448;32.074;2022-12-07T02:39:01;4.40;;;4.00;;
52035;SDS011;38046;49.448;32.074;2022-12-07T02:41:52;5.75;;;4.90;;
52035;SDS011;38046;49.448;32.074;2022-12-07T02:44:25;5.78;;;4.05;;
52035;SDS011;38046;49.448;32.074;2022-12-07T02:47:02;5.28;;;4.05;;
52035;SDS011;38046;49.448;32.074;2022-12-07T02:49:30;5.30;;;3.88;;
52035;SDS011;38046;49.448;32.074;2022-12-07T02:51:56;6.72;;;4.03;;
52035;SDS011;38046;49.448;32.074;2022-12-07T02:54:22;5.32;;;4.00;;
52035;SDS011;38046;49.448;32.074;2022-12-07T03:02:43;5.88;;;4.15;;
52035;SDS011;38046;49.448;32.074;2022-12-07T03:10:35;4.68;;;4.18;;
52035;SDS011;38046;49.448;32.074;2022-12-07T03:13:03;5.55;;;4.40;;
52035;SDS011;38046;49.448;32.074;2022-12-07T03:16:05;5.07;;;4.20;;
52035;SDS011;38046;49.448;32.074;2022-12-07T03:18:37;5.50;;;4.50;;
52035;SDS011;38046;49.448;32.074;2022-12-07T03:21:11;5.55;;;4.43;;
52035;SDS011;38046;49.448;32.074;2022-12-07T03:23:44;6.20;;;4.80;;
52035;SDS011;38046;49.448;32.074;2022-12-07T03:26:14;6.68;;;4.95;;
52035;SDS011;38046;49.448;32.074;2022-12-07T03:28:42;4.97;;;3.95;;
52035;SDS011;38046;49.448;32.074;2022-12-07T03:31:15;4.15;;;3.75;;
52035;SDS011;38046;49.448;32.074;2022-12-07T03:33:50;5.68;;;4.07;;
52035;SDS011;38046;49.448;32.074;2022-12-07T03:36:49;4.88;;;4.28;;
52035;SDS011;38046;49.448;32.074;2022-12-07T03:42:05;5.85;;;4.20;;
52035;SDS011;38046;49.448;32.074;2022-12-07T03:44:32;6.65;;;4.28;;
52035;SDS011;38046;49.448;32.074;2022-12-07T03:49:31;7.50;;;5.35;;
52035;SDS011;38046;49.448;32.074;2022-12-07T03:52:17;5.55;;;4.80;;
52035;SDS011;38046;49.448;32.074;2022-12-07T03:57:29;7.13;;;4.82;;
52035;SDS011;38046;49.448;32.074;2022-12-07T03:59:57;6.43;;;4.40;;
52035;SDS011;38046;49.448;32.074;2022-12-07T04:02:23;7.15;;;4.78;;
52035;SDS011;38046;49.448;32.074;2022-12-07T04:04:54;6.28;;;4.70;;
52035;SDS011;38046;49.448;32.074;2022-12-07T04:07:23;6.82;;;5.10;;
52035;SDS011;38046;49.448;32.074;2022-12-07T04:09:49;6.28;;;4.70;;
52035;SDS011;38046;49.448;32.074;2022-12-07T04:12:15;7.15;;;4.90;;
52035;SDS011;38046;49.448;32.074;2022-12-07T04:14:41;7.60;;;4.60;;
52035;SDS011;38046;49.448;32.074;2022-12-07T04:17:08;7.35;;;4.63;;
52035;SDS011;38046;49.448;32.074;2022-12-07T04:19:34;7.47;;;4.97;;
52035;SDS011;38046;49.448;32.074;2022-12-07T04:22:03;6.40;;;4.53;;
52035;SDS011;38046;49.448;32.074;2022-12-07T04:24:29;7.00;;;4.80;;
52035;SDS011;38046;49.448;32.074;2022-12-07T04:26:55;5.45;;;4.53;;
52035;SDS011;38046;49.448;32.074;2022-12-07T04:29:21;5.63;;;4.30;;
52035;SDS011;38046;49.448;32.074;2022-12-07T04:31:47;7.40;;;4.82;;
52035;SDS011;38046;49.448;32.074;2022-12-07T04:34:14;7.65;;;5.07;;
52035;SDS011;38046;49.448;32.074;2022-12-07T04:36:41;6.03;;;4.35;;
52035;SDS011;38046;49.448;32.074;2022-12-07T04:39:09;7.03;;;4.60;;
52035;SDS011;38046;49.448;32.074;2022-12-07T04:44:15;4.88;;;4.35;;
52035;SDS011;38046;49.448;32.074;2022-12-07T04:46:45;5.55;;;4.60;;
52035;SDS011;38046;49.448;32.074;2022-12-07T04:49:11;5.28;;;4.38;;
52035;SDS011;38046;49.448;32.074;2022-12-07T04:51:38;6.47;;;4.72;;
52035;SDS011;38046;49.448;32.074;2022-12-07T04:54:04;6.18;;;4.32;;
52035;SDS011;38046;49.448;32.074;2022-12-07T04:56:31;5.97;;;4.80;;
52035;SDS011;38046;49.448;32.074;2022-12-07T04:58:57;6.75;;;4.80;;
52035;SDS011;38046;49.448;32.074;2022-12-07T05:01:23;7.07;;;5.20;;
52035;SDS011;38046;49.448;32.074;2022-12-07T05:03:49;7.05;;;4.95;;
52035;SDS011;38046;49.448;32.074;2022-12-07T05:06:15;7.78;;;4.97;;
52035;SDS011;38046;49.448;32.074;2022-12-07T05:08:41;8.13;;;5.43;;
52035;SDS011;38046;49.448;32.074;2022-12-07T05:11:08;7.88;;;5.25;;
52035;SDS011;38046;49.448;32.074;2022-12-07T05:13:56;6.55;;;4.93;;
52035;SDS011;38046;49.448;32.074;2022-12-07T05:16:22;7.75;;;5.22;;
52035;SDS011;38046;49.448;32.074;2022-12-07T05:18:48;5.88;;;4.80;;
52035;SDS011;38046;49.448;32.074;2022-12-07T05:21:14;6.40;;;5.05;;
52035;SDS011;38046;49.448;32.074;2022-12-07T05:23:40;6.85;;;5.25;;
52035;SDS011;38046;49.448;32.074;2022-12-07T05:26:05;7.90;;;5.35;;
52035;SDS011;38046;49.448;32.074;2022-12-07T05:28:31;8.00;;;5.18;;
52035;SDS011;38046;49.448;32.074;2022-12-07T05:30:57;10.25;;;6.90;;
52035;SDS011;38046;49.448;32.074;2022-12-07T05:33:32;9.07;;;6.25;;
52035;SDS011;38046;49.448;32.074;2022-12-07T05:35:58;8.32;;;5.68;;
52035;SDS011;38046;49.448;32.074;2022-12-07T05:38:24;8.15;;;5.93;;
52035;SDS011;38046;49.448;32.074;2022-12-07T05:40:52;8.43;;;5.78;;
52035;SDS011;38046;49.448;32.074;2022-12-07T05:43:26;6.97;;;5.50;;
52035;SDS011;38046;49.448;32.074;2022-12-07T05:45:52;7.90;;;5.32;;
52035;SDS011;38046;49.448;32.074;2022-12-07T05:48:17;7.13;;;5.60;;
52035;SDS011;38046;49.448;32.074;2022-12-07T05:50:43;9.98;;;6.55;;
52035;SDS011;38046;49.448;32.074;2022-12-07T05:53:12;9.05;;;6.47;;
52035;SDS011;38046;49.448;32.074;2022-12-07T05:55:38;8.07;;;6.45;;
52035;SDS011;38046;49.448;32.074;2022-12-07T05:58:06;10.88;;;7.07;;
52035;SDS011;38046;49.448;32.074;2022-12-07T06:00:50;9.05;;;6.38;;
52035;SDS011;38046;49.448;32.074;2022-12-07T06:03:16;10.07;;;6.70;;
52035;SDS011;38046;49.448;32.074;2022-12-07T06:05:42;12.13;;;7.78;;
52035;SDS011;38046;49.448;32.074;2022-12-07T06:08:08;10.40;;;6.97;;
52035;SDS011;38046;49.448;32.074;2022-12-07T06:10:33;9.98;;;6.90;;
52035;SDS011;38046;49.448;32.074;2022-12-07T06:12:59;8.25;;;6.55;;
52035;SDS011;38046;49.448;32.074;2022-12-07T06:15:27;9.25;;;7.03;;
52035;SDS011;38046;49.448;32.074;2022-12-07T06:17:53;9.00;;;7.35;;
52035;SDS011;38046;49.448;32.074;2022-12-07T06:20:19;10.20;;;6.60;;
52035;SDS011;38046;49.448;32.074;2022-12-07T06:22:47;10.52;;;7.63;;
52035;SDS011;38046;49.448;32.074;2022-12-07T06:25:13;8.85;;;6.70;;
52035;SDS011;38046;49.448;32.074;2022-12-07T06:27:39;10.50;;;7.05;;
52035;SDS011;38046;49.448;32.074;2022-12-07T06:30:05;10.63;;;6.75;;
52035;SDS011;38046;49.448;32.074;2022-12-07T06:32:33;9.93;;;6.85;;
52035;SDS011;38046;49.448;32.074;2022-12-07T06:35:01;9.70;;;7.53;;
52035;SDS011;38046;49.448;32.074;2022-12-07T06:37:27;9.82;;;7.15;;
52035;SDS011;38046;49.448;32.074;2022-12-07T06:39:56;9.63;;;7.05;;
52035;SDS011;38046;49.448;32.074;2022-12-07T06:42:21;10.55;;;7.88;;
52035;SDS011;38046;49.448;32.074;2022-12-07T06:44:50;9.98;;;7.30;;
52035;SDS011;38046;49.448;32.074;2022-12-07T06:47:16;9.38;;;6.70;;
52035;SDS011;38046;49.448;32.074;2022-12-07T06:49:42;11.60;;;7.45;;
52035;SDS011;38046;49.448;32.074;2022-12-07T06:52:08;11.25;;;7.30;;
52035;SDS011;38046;49.448;32.074;2022-12-07T06:54:42;10.43;;;7.13;;
52035;SDS011;38046;49.448;32.074;2022-12-07T06:57:10;8.88;;;6.78;;
52035;SDS011;38046;49.448;32.074;2022-12-07T06:59:36;10.77;;;7.25;;
52035;SDS011;38046;49.448;32.074;2022-12-07T07:02:05;10.68;;;7.35;;
52035;SDS011;38046;49.448;32.074;2022-12-07T07:04:30;9.25;;;6.47;;
52035;SDS011;38046;49.448;32.074;2022-12-07T07:06:56;12.27;;;7.43;;
52035;SDS011;38046;49.448;32.074;2022-12-07T07:09:22;10.02;;;6.65;;
52035;SDS011;38046;49.448;32.074;2022-12-07T07:11:48;10.95;;;6.80;;
52035;SDS011;38046;49.448;32.074;2022-12-07T07:14:13;9.93;;;7.55;;
52035;SDS011;38046;49.448;32.074;2022-12-07T07:16:43;9.80;;;7.22;;
52035;SDS011;38046;49.448;32.074;2022-12-07T07:19:09;10.15;;;6.88;;
52035;SDS011;38046;49.448;32.074;2022-12-07T07:21:36;9.90;;;7.10;;
52035;SDS011;38046;49.448;32.074;2022-12-07T07:24:02;11.63;;;7.03;;
52035;SDS011;38046;49.448;32.074;2022-12-07T07:26:28;11.65;;;7.47;;
52035;SDS011;38046;49.448;32.074;2022-12-07T07:28:55;9.65;;;7.05;;
52035;SDS011;38046;49.448;32.074;2022-12-07T07:31:20;11.27;;;8.25;;
52035;SDS011;38046;49.448;32.074;2022-12-07T07:33:46;8.60;;;6.70;;
52035;SDS011;38046;49.448;32.074;2022-12-07T07:36:12;9.77;;;6.70;;
52035;SDS011;38046;49.448;32.074;2022-12-07T07:38:38;9.70;;;7.18;;
52035;SDS011;38046;49.448;32.074;2022-12-07T07:41:04;11.05;;;7.13;;
52035;SDS011;38046;49.448;32.074;2022-12-07T07:43:29;9.88;;;7.25;;
52035;SDS011;38046;49.448;32.074;2022-12-07T07:45:55;11.35;;;7.10;;
52035;SDS011;38046;49.448;32.074;2022-12-07T07:48:21;11.77;;;8.13;;
52035;SDS011;38046;49.448;32.074;2022-12-07T07:50:47;11.43;;;8.18;;
52035;SDS011;38046;49.448;32.074;2022-12-07T07:53:13;12.75;;;8.35;;
52035;SDS011;38046;49.448;32.074;2022-12-07T07:55:39;10.43;;;7.95;;
52035;SDS011;38046;49.448;32.074;2022-12-07T07:58:04;11.55;;;7.60;;
52035;SDS011;38046;49.448;32.074;2022-12-07T08:00:30;10.18;;;7.32;;
52035;SDS011;38046;49.448;32.074;2022-12-07T08:02:56;9.52;;;6.82;;
52035;SDS011;38046;49.448;32.074;2022-12-07T08:05:22;9.10;;;6.15;;
52035;SDS011;38046;49.448;32.074;2022-12-07T08:07:47;9.07;;;6.35;;
52035;SDS011;38046;49.448;32.074;2022-12-07T08:10:13;11.00;;;6.90;;
52035;SDS011;38046;49.448;32.074;2022-12-07T08:12:39;10.18;;;7.10;;
52035;SDS011;38046;49.448;32.074;2022-12-07T08:15:29;8.38;;;6.68;;
52035;SDS011;38046;49.448;32.074;2022-12-07T08:17:56;10.43;;;6.85;;
52035;SDS011;38046;49.448;32.074;2022-12-07T08:20:21;7.60;;;6.55;;
52035;SDS011;38046;49.448;32.074;2022-12-07T08:22:47;13.85;;;8.02;;
52035;SDS011;38046;49.448;32.074;2022-12-07T08:25:13;10.65;;;7.22;;
52035;SDS011;38046;49.448;32.074;2022-12-07T08:27:39;8.68;;;6.78;;
52035;SDS011;38046;49.448;32.074;2022-12-07T08:30:05;11.27;;;7.72;;
52035;SDS011;38046;49.448;32.074;2022-12-07T08:32:31;9.82;;;8.00;;
52035;SDS011;38046;49.448;32.074;2022-12-07T08:34:56;9.98;;;7.20;;
52035;SDS011;38046;49.448;32.074;2022-12-07T08:37:22;10.18;;;7.50;;
52035;SDS011;38046;49.448;32.074;2022-12-07T08:39:48;8.43;;;6.20;;
52035;SDS011;38046;49.448;32.074;2022-12-07T08:42:14;8.50;;;6.78;;
52035;SDS011;38046;49.448;32.074;2022-12-07T08:44:39;8.77;;;6.43;;
52035;SDS011;38046;49.448;32.074;2022-12-07T08:47:05;9.45;;;6.53;;
52035;SDS011;38046;49.448;32.074;2022-12-07T08:49:34;9.60;;;6.97;;
52035;SDS011;38046;49.448;32.074;2022-12-07T08:52:04;10.93;;;6.78;;
52035;SDS011;38046;49.448;32.074;2022-12-07T08:54:30;9.23;;;6.85;;
52035;SDS011;38046;49.448;32.074;2022-12-07T08:56:57;9.98;;;7.03;;
52035;SDS011;38046;49.448;32.074;2022-12-07T08:59:22;9.82;;;6.45;;
52035;SDS011;38046;49.448;32.074;2022-12-07T09:01:48;10.80;;;7.57;;
52035;SDS011;38046;49.448;32.074;2022-12-07T09:04:14;9.98;;;6.15;;
52035;SDS011;38046;49.448;32.074;2022-12-07T09:09:17;9.18;;;6.32;;
52035;SDS011;38046;49.448;32.074;2022-12-07T09:11:42;8.57;;;6.35;;
52035;SDS011;38046;49.448;32.074;2022-12-07T09:14:10;10.05;;;6.63;;
52035;SDS011;38046;49.448;32.074;2022-12-07T09:16:37;8.48;;;6.10;;
52035;SDS011;38046;49.448;32.074;2022-12-07T09:19:03;10.00;;;6.35;;
52035;SDS011;38046;49.448;32.074;2022-12-07T09:21:29;13.18;;;6.88;;
52035;SDS011;38046;49.448;32.074;2022-12-07T09:23:55;7.18;;;5.38;;
52035;SDS011;38046;49.448;32.074;2022-12-07T09:26:20;7.15;;;5.57;;
52035;SDS011;38046;49.448;32.074;2022-12-07T09:28:46;8.13;;;5.78;;
52035;SDS011;38046;49.448;32.074;2022-12-07T09:31:12;8.40;;;6.40;;
52035;SDS011;38046;49.448;32.074;2022-12-07T09:33:38;7.35;;;5.43;;
52035;SDS011;38046;49.448;32.074;2022-12-07T09:36:03;8.85;;;5.80;;
52035;SDS011;38046;49.448;32.074;2022-12-07T09:38:30;6.93;;;5.38;;
52035;SDS011;38046;49.448;32.074;2022-12-07T09:40:57;9.50;;;6.15;;
52035;SDS011;38046;49.448;32.074;2022-12-07T09:43:30;11.25;;;7.05;;
52035;SDS011;38046;49.448;32.074;2022-12-07T09:45:55;8.18;;;5.50;;
52035;SDS011;38046;49.448;32.074;2022-12-07T09:48:36;7.40;;;6.05;;
52035;SDS011;38046;49.448;32.074;2022-12-07T09:53:56;8.00;;;6.07;;
52035;SDS011;38046;49.448;32.074;2022-12-07T09:56:23;7.47;;;5.50;;
52035;SDS011;38046;49.448;32.074;2022-12-07T09:58:49;8.25;;;5.78;;
52035;SDS011;38046;49.448;32.074;2022-12-07T10:01:27;7.22;;;4.93;;
52035;SDS011;38046;49.448;32.074;2022-12-07T10:03:57;7.07;;;5.30;;
52035;SDS011;38046;49.448;32.074;2022-12-07T10:06:35;9.02;;;6.25;;
52035;SDS011;38046;49.448;32.074;2022-12-07T10:09:01;8.50;;;6.18;;
52035;SDS011;38046;49.448;32.074;2022-12-07T10:11:27;8.43;;;5.78;;
52035;SDS011;38046;49.448;32.074;2022-12-07T10:13:53;8.07;;;5.80;;
52035;SDS011;38046;49.448;32.074;2022-12-07T10:16:35;9.65;;;6.63;;
52035;SDS011;38046;49.448;32.074;2022-12-07T10:19:23;7.20;;;5.40;;
52035;SDS011;38046;49.448;32.074;2022-12-07T10:22:14;7.63;;;5.60;;
52035;SDS011;38046;49.448;32.074;2022-12-07T10:24:42;8.02;;;5.50;;
52035;SDS011;38046;49.448;32.074;2022-12-07T10:27:21;8.13;;;5.72;;
52035;SDS011;38046;49.448;32.074;2022-12-07T10:29:52;8.43;;;5.88;;
52035;SDS011;38046;49.448;32.074;2022-12-07T10:34:44;8.93;;;6.30;;
52035;SDS011;38046;49.448;32.074;2022-12-07T10:37:15;7.35;;;5.75;;
52035;SDS011;38046;49.448;32.074;2022-12-07T10:39:50;8.45;;;6.25;;
52035;SDS011;38046;49.448;32.074;2022-12-07T10:44:49;10.73;;;6.90;;
52035;SDS011;38046;49.448;32.074;2022-12-07T11:17:48;8.57;;;6.30;;
52035;SDS011;38046;49.448;32.074;2022-12-07T11:25:48;11.23;;;7.20;;
52035;SDS011;38046;49.448;32.074;2022-12-07T11:42:24;9.02;;;6.30;;
52035;SDS011;38046;49.448;32.074;2022-12-07T11:44:53;9.30;;;6.43;;
52035;SDS011;38046;49.448;32.074;2022-12-07T12:01:28;9.70;;;6.22;;
52035;SDS011;38046;49.448;32.074;2022-12-07T12:04:12;8.50;;;5.97;;
52035;SDS011;38046;49.448;32.074;2022-12-07T12:06:47;8.20;;;6.22;;
52035;SDS011;38046;49.448;32.074;2022-12-07T12:09:13;7.82;;;6.45;;
52035;SDS011;38046;49.448;32.074;2022-12-07T12:17:53;9.75;;;6.90;;
52035;SDS011;38046;49.448;32.074;2022-12-07T12:20:40;7.25;;;5.13;;
52035;SDS011;38046;49.448;32.074;2022-12-07T12:25:55;9.48;;;6.30;;
52035;SDS011;38046;49.448;32.074;2022-12-07T12:28:29;9.93;;;6.53;;
52035;SDS011;38046;49.448;32.074;2022-12-07T12:33:45;9.25;;;6.55;;
52035;SDS011;38046;49.448;32.074;2022-12-07T12:46:58;8.10;;;6.07;;
52035;SDS011;38046;49.448;32.074;2022-12-07T12:54:57;7.95;;;5.90;;
52035;SDS011;38046;49.448;32.074;2022-12-07T12:57:36;10.52;;;6.70;;
52035;SDS011;38046;49.448;32.074;2022-12-07T13:15:37;7.60;;;5.95;;
52035;SDS011;38046;49.448;32.074;2022-12-07T13:23:19;8.85;;;6.53;;
52035;SDS011;38046;49.448;32.074;2022-12-07T13:25:53;10.63;;;6.60;;
52035;SDS011;38046;49.448;32.074;2022-12-07T13:28:25;7.15;;;6.00;;
52035;SDS011;38046;49.448;32.074;2022-12-07T13:33:56;9.05;;;6.28;;
52035;SDS011;38046;49.448;32.074;2022-12-07T13:36:27;9.05;;;6.60;;
52035;SDS011;38046;49.448;32.074;2022-12-07T13:39:11;8.97;;;6.77;;
52035;SDS011;38046;49.448;32.074;2022-12-07T13:41:43;10.35;;;7.30;;
52035;SDS011;38046;49.448;32.074;2022-12-07T13:44:10;10.05;;;6.95;;
52035;SDS011;38046;49.448;32.074;2022-12-07T13:49:28;9.75;;;7.15;;
52035;SDS011;38046;49.448;32.074;2022-12-07T13:51:55;7.63;;;6.22;;
52035;SDS011;38046;49.448;32.074;2022-12-07T13:54:43;8.38;;;6.35;;
52035;SDS011;38046;49.448;32.074;2022-12-07T13:57:11;10.40;;;6.72;;
52035;SDS011;38046;49.448;32.074;2022-12-07T13:59:37;8.68;;;6.30;;
52035;SDS011;38046;49.448;32.074;2022-12-07T14:02:16;11.05;;;6.40;;
52035;SDS011;38046;49.448;32.074;2022-12-07T14:07:58;9.07;;;6.68;;
52035;SDS011;38046;49.448;32.074;2022-12-07T14:10:31;9.10;;;6.75;;
52035;SDS011;38046;49.448;32.074;2022-12-07T14:13:26;9.27;;;6.30;;
52035;SDS011;38046;49.448;32.074;2022-12-07T14:15:54;9.48;;;7.07;;
52035;SDS011;38046;49.448;32.074;2022-12-07T14:18:30;9.27;;;6.35;;
52035;SDS011;38046;49.448;32.074;2022-12-07T14:21:04;9.10;;;6.70;;
52035;SDS011;38046;49.448;32.074;2022-12-07T14:23:30;8.35;;;6.10;;
52035;SDS011;38046;49.448;32.074;2022-12-07T14:26:04;9.82;;;7.03;;
52035;SDS011;38046;49.448;32.074;2022-12-07T14:28:40;11.32;;;7.60;;
52035;SDS011;38046;49.448;32.074;2022-12-07T14:31:14;8.88;;;6.70;;
52035;SDS011;38046;49.448;32.074;2022-12-07T14:33:46;11.52;;;7.25;;
52035;SDS011;38046;49.448;32.074;2022-12-07T14:36:12;9.52;;;7.38;;
52035;SDS011;38046;49.448;32.074;2022-12-07T14:38:39;10.55;;;7.38;;
52035;SDS011;38046;49.448;32.074;2022-12-07T14:41:06;10.38;;;7.07;;
52035;SDS011;38046;49.448;32.074;2022-12-07T14:43:57;10.65;;;7.45;;
52035;SDS011;38046;49.448;32.074;2022-12-07T14:46:22;8.95;;;6.45;;
52035;SDS011;38046;49.448;32.074;2022-12-07T14:48:50;10.15;;;6.63;;
52035;SDS011;38046;49.448;32.074;2022-12-07T14:51:15;11.80;;;7.43;;
52035;SDS011;38046;49.448;32.074;2022-12-07T14:53:42;8.43;;;7.10;;
52035;SDS011;38046;49.448;32.074;2022-12-07T14:56:11;10.73;;;7.13;;
52035;SDS011;38046;49.448;32.074;2022-12-07T14:58:37;9.13;;;6.68;;
52035;SDS011;38046;49.448;32.074;2022-12-07T15:01:03;10.10;;;7.25;;
52035;SDS011;38046;49.448;32.074;2022-12-07T15:03:30;10.25;;;7.25;;
52035;SDS011;38046;49.448;32.074;2022-12-07T15:05:56;9.52;;;6.88;;
52035;SDS011;38046;49.448;32.074;2022-12-07T15:08:22;9.77;;;6.57;;
52035;SDS011;38046;49.448;32.074;2022-12-07T15:10:47;10.13;;;6.93;;
52035;SDS011;38046;49.448;32.074;2022-12-07T15:13:13;9.57;;;6.35;;
52035;SDS011;38046;49.448;32.074;2022-12-07T15:15:58;8.68;;;6.22;;
52035;SDS011;38046;49.448;32.074;2022-12-07T15:18:24;10.30;;;6.28;;
52035;SDS011;38046;49.448;32.074;2022-12-07T15:20:50;7.35;;;5.85;;
52035;SDS011;38046;49.448;32.074;2022-12-07T15:23:16;9.25;;;6.03;;
52035;SDS011;38046;49.448;32.074;2022-12-07T15:25:42;10.32;;;6.20;;
52035;SDS011;38046;49.448;32.074;2022-12-07T15:28:09;9.10;;;7.03;;
52035;SDS011;38046;49.448;32.074;2022-12-07T15:30:38;8.75;;;6.82;;
52035;SDS011;38046;49.448;32.074;2022-12-07T15:33:05;9.10;;;6.35;;
52035;SDS011;38046;49.448;32.074;2022-12-07T15:35:30;8.38;;;6.50;;
52035;SDS011;38046;49.448;32.074;2022-12-07T15:37:56;8.85;;;6.32;;
52035;SDS011;38046;49.448;32.074;2022-12-07T15:40:21;8.93;;;6.65;;
52035;SDS011;38046;49.448;32.074;2022-12-07T15:42:47;8.77;;;7.15;;
52035;SDS011;38046;49.448;32.074;2022-12-07T15:45:13;11.20;;;6.78;;
52035;SDS011;38046;49.448;32.074;2022-12-07T15:47:39;9.25;;;6.55;;
52035;SDS011;38046;49.448;32.074;2022-12-07T15:50:08;12.27;;;7.38;;
52035;SDS011;38046;49.448;32.074;2022-12-07T15:52:35;8.45;;;7.13;;
52035;SDS011;38046;49.448;32.074;2022-12-07T15:55:01;11.02;;;6.53;;
52035;SDS011;38046;49.448;32.074;2022-12-07T15:57:30;12.32;;;7.72;;
52035;SDS011;38046;49.448;32.074;2022-12-07T16:00:00;10.48;;;7.22;;
52035;SDS011;38046;49.448;32.074;2022-12-07T16:02:26;12.05;;;7.43;;
52035;SDS011;38046;49.448;32.074;2022-12-07T16:04:51;8.65;;;6.32;;
52035;SDS011;38046;49.448;32.074;2022-12-07T16:07:18;11.45;;;7.40;;
52035;SDS011;38046;49.448;32.074;2022-12-07T16:09:44;9.65;;;6.80;;
52035;SDS011;38046;49.448;32.074;2022-12-07T16:23:39;9.73;;;7.20;;
52035;SDS011;38046;49.448;32.074;2022-12-07T16:26:06;9.95;;;7.15;;
52035;SDS011;38046;49.448;32.074;2022-12-07T16:28:33;8.32;;;6.10;;
52035;SDS011;38046;49.448;32.074;2022-12-07T16:31:00;7.45;;;6.07;;
52035;SDS011;38046;49.448;32.074;2022-12-07T16:33:27;7.60;;;5.82;;
52035;SDS011;38046;49.448;32.074;2022-12-07T16:35:53;8.60;;;6.30;;
52035;SDS011;38046;49.448;32.074;2022-12-07T16:38:19;10.18;;;6.93;;
52035;SDS011;38046;49.448;32.074;2022-12-07T16:40:46;9.93;;;6.72;;
52035;SDS011;38046;49.448;32.074;2022-12-07T16:43:13;10.48;;;7.03;;
52035;SDS011;38046;49.448;32.074;2022-12-07T16:45:39;10.25;;;6.90;;
52035;SDS011;38046;49.448;32.074;2022-12-07T16:48:05;10.10;;;7.38;;
52035;SDS011;38046;49.448;32.074;2022-12-07T16:50:34;9.52;;;7.35;;
52035;SDS011;38046;49.448;32.074;2022-12-07T16:53:03;9.55;;;6.68;;
52035;SDS011;38046;49.448;32.074;2022-12-07T16:55:29;9.73;;;6.40;;
52035;SDS011;38046;49.448;32.074;2022-12-07T16:57:56;9.18;;;6.53;;
52035;SDS011;38046;49.448;32.074;2022-12-07T17:00:22;10.18;;;6.72;;
52035;SDS011;38046;49.448;32.074;2022-12-07T17:02:48;9.60;;;6.63;;
52035;SDS011;38046;49.448;32.074;2022-12-07T17:05:13;9.68;;;6.45;;
52035;SDS011;38046;49.448;32.074;2022-12-07T17:07:39;10.75;;;7.38;;
52035;SDS011;38046;49.448;32.074;2022-12-07T17:10:05;8.00;;;6.25;;
52035;SDS011;38046;49.448;32.074;2022-12-07T17:12:32;10.13;;;7.03;;
52035;SDS011;38046;49.448;32.074;2022-12-07T17:14:57;9.73;;;6.60;;
52035;SDS011;38046;49.448;32.074;2022-12-07T17:17:42;10.50;;;7.22;;
52035;SDS011;38046;49.448;32.074;2022-12-07T17:20:18;10.85;;;6.97;;
52035;SDS011;38046;49.448;32.074;2022-12-07T17:22:44;10.05;;;7.53;;
52035;SDS011;38046;49.448;32.074;2022-12-07T17:25:11;9.32;;;6.38;;
52035;SDS011;38046;49.448;32.074;2022-12-07T17:27:37;9.90;;;6.43;;
52035;SDS011;38046;49.448;32.074;2022-12-07T17:30:04;8.20;;;6.25;;
52035;SDS011;38046;49.448;32.074;2022-12-07T17:32:31;8.93;;;6.07;;
52035;SDS011;38046;49.448;32.074;2022-12-07T17:34:57;8.55;;;6.28;;
52035;SDS011;38046;49.448;32.074;2022-12-07T17:37:24;7.57;;;5.57;;
52035;SDS011;38046;49.448;32.074;2022-12-07T17:39:51;9.13;;;6.25;;
52035;SDS011;38046;49.448;32.074;2022-12-07T17:42:18;9.88;;;7.05;;
52035;SDS011;38046;49.448;32.074;2022-12-07T17:45:08;9.68;;;6.25;;